Time;durP1;ratioP1;P1;durP2;ratioP2;P2;SDS_P1;SDS_P2;PMS_P1;PMS_P2;Temp;Humidity;BMP_temperature;BMP_pressure;BME280_temperature;BME280_humidity;BME280_pressure;Samples;Min_cycle;Max_cycle;Signal;HPM_P1;HPM_P2
2021/01/23 00:04:14;;;;;;;16.20;9.15;;;;;;;5.39;66.35;95470.41;9897030;30;20067;-76
2021/01/23 00:09:34;;;;;;;13.07;9.13;;;;;;;5.33;67.73;95475.66;9913736;29;20071;-76
2021/01/23 00:14:54;;;;;;;14.05;9.50;;;;;;;5.34;67.99;95462.53;9903211;30;20139;-76
2021/01/23 00:20:14;;;;;;;17.30;10.23;;;;;;;5.31;67.36;95445.13;9878281;30;20059;-75
2021/01/23 00:25:35;;;;;;;16.98;10.73;;;;;;;5.32;68.83;95460.41;9916671;30;20097;-76
2021/01/23 00:30:55;;;;;;;14.10;9.82;;;;;;;5.21;69.19;95441.84;9903740;30;20522;-76
2021/01/23 00:36:15;;;;;;;12.57;9.05;;;;;;;5.25;69.07;95416.44;9916593;29;20063;-76
2021/01/23 00:41:35;;;;;;;16.38;9.32;;;;;;;5.28;69.05;95413.16;9902948;30;20063;-76
2021/01/23 00:46:58;;;;;;;12.68;8.68;;;;;;;5.31;69.34;95409.16;9902564;30;20063;-76
2021/01/23 00:52:18;;;;;;;14.60;9.90;;;;;;;5.23;70.60;95408.75;9902068;30;20120;-76
2021/01/23 00:57:39;;;;;;;14.88;9.65;;;;;;;5.21;70.52;95403.13;9865055;30;20422;-76
2021/01/23 01:03:02;;;;;;;15.90;10.00;;;;;;;5.14;71.98;95390.31;9902686;30;20059;-76
2021/01/23 01:08:34;;;;;;;13.27;9.65;;;;;;;5.07;72.14;95369.22;9890362;30;20063;-76
2021/01/23 01:13:54;;;;;;;13.73;9.40;;;;;;;5.10;71.65;95379.75;9915791;30;20063;-76
2021/01/23 01:19:14;;;;;;;13.68;9.23;;;;;;;5.08;72.92;95362.34;9901319;29;20511;-76
2021/01/23 01:24:34;;;;;;;15.40;9.48;;;;;;;5.10;72.15;95368.69;9915398;30;20457;-76
2021/01/23 01:29:53;;;;;;;13.77;9.35;;;;;;;5.14;72.23;95359.91;9876372;30;20094;-76
2021/01/23 01:35:13;;;;;;;12.02;8.70;;;;;;;5.16;73.08;95340.63;9900788;29;20059;-76
2021/01/23 01:40:33;;;;;;;13.52;8.52;;;;;;;5.18;72.94;95346.97;9887795;30;20139;-76
2021/01/23 01:45:53;;;;;;;14.10;8.70;;;;;;;5.29;72.97;95326.06;9888051;30;20091;-76
2021/01/23 01:51:14;;;;;;;11.15;7.93;;;;;;;5.32;72.32;95337.97;9888410;30;20143;-76
2021/01/23 01:56:34;;;;;;;13.43;8.38;;;;;;;5.41;72.66;95329.44;9887827;30;20056;-76
2021/01/23 02:02:32;;;;;;;12.75;8.23;;;;;;;5.49;72.72;95347.75;9898850;30;20099;-76
2021/01/23 02:08:26;;;;;;;12.60;7.97;;;;;;;5.60;72.31;95344.16;9888590;30;20400;-76
2021/01/23 02:14:11;;;;;;;12.23;8.30;;;;;;;5.67;72.28;95334.78;9902501;30;20419;-76
2021/01/23 02:20:08;;;;;;;14.60;8.32;;;;;;;5.78;72.71;95336.69;9889527;30;20576;-76
2021/01/23 02:25:27;;;;;;;11.38;7.43;;;;;;;5.88;72.38;95330.91;9899093;30;20120;-76
2021/01/23 02:31:13;;;;;;;12.82;7.45;;;;;;;5.92;72.32;95323.53;9886321;29;20071;-76
2021/01/23 02:36:33;;;;;;;11.85;7.13;;;;;;;5.93;72.61;95322.19;9862718;30;20511;-76
2021/01/23 02:41:53;;;;;;;12.50;7.57;;;;;;;5.95;72.34;95327.84;9898058;30;20207;-76
2021/01/23 02:47:13;;;;;;;13.02;7.57;;;;;;;6.00;72.80;95331.50;9885547;30;20067;-76
2021/01/23 02:52:57;;;;;;;9.95;7.20;;;;;;;6.00;72.58;95337.06;9897760;30;20435;-76
2021/01/23 02:58:18;;;;;;;10.82;7.55;;;;;;;6.03;72.81;95322.66;9912171;30;20059;-76
2021/01/23 03:03:38;;;;;;;10.77;7.10;;;;;;;6.07;72.66;95318.66;9910730;30;20486;-76
2021/01/23 03:08:58;;;;;;;8.77;6.72;;;;;;;6.06;73.20;95319.97;9884663;30;20067;-76
2021/01/23 03:14:19;;;;;;;9.07;6.82;;;;;;;6.10;73.01;95309.09;9896827;30;20063;-76
2021/01/23 03:19:39;;;;;;;10.00;6.85;;;;;;;6.12;72.89;95311.97;9897769;30;20098;-76
2021/01/23 03:24:58;;;;;;;13.55;6.93;;;;;;;6.11;73.63;95310.53;9884098;30;20129;-76
2021/01/23 03:30:21;;;;;;;9.68;6.43;;;;;;;6.12;73.39;95300.88;9884983;30;20142;-76
2021/01/23 03:35:43;;;;;;;10.45;6.32;;;;;;;6.15;73.15;95303.13;9884870;29;20069;-76
2021/01/23 03:41:04;;;;;;;9.90;6.88;;;;;;;6.17;73.00;95305.97;9909740;30;20422;-76
2021/01/23 03:46:23;;;;;;;9.27;5.50;;;;;;;6.23;73.46;95283.38;9910616;30;20070;-76
2021/01/23 03:51:43;;;;;;;10.38;5.78;;;;;;;6.29;72.92;95278.13;9895753;30;20063;-76
2021/01/23 03:57:03;;;;;;;10.13;5.70;;;;;;;6.32;73.20;95254.69;9910138;30;20059;-76
2021/01/23 04:02:22;;;;;;;13.02;6.00;;;;;;;6.33;73.28;95250.56;9895975;30;20128;-76
2021/01/23 04:07:42;;;;;;;12.45;6.07;;;;;;;6.34;73.40;95240.19;9895486;30;20063;-76
2021/01/23 04:13:04;;;;;;;11.38;5.90;;;;;;;6.34;73.06;95232.59;9896301;30;20512;-76
2021/01/23 04:18:24;;;;;;;9.50;5.40;;;;;;;6.35;73.39;95228.50;9909071;30;20068;-76
2021/01/23 04:23:44;;;;;;;8.45;5.28;;;;;;;6.37;73.73;95219.53;9895374;30;20091;-76
2021/01/23 04:29:04;;;;;;;7.30;4.70;;;;;;;6.36;73.86;95221.59;9895533;30;20070;-76
2021/01/23 04:34:24;;;;;;;8.57;5.05;;;;;;;6.33;73.15;95214.56;9882627;29;20543;-76
2021/01/23 04:39:44;;;;;;;9.73;5.13;;;;;;;6.42;73.53;95219.09;9907974;30;20538;-76
2021/01/23 04:45:05;;;;;;;9.60;4.75;;;;;;;6.47;73.47;95206.16;9894804;30;20583;-76
2021/01/23 04:50:24;;;;;;;9.70;4.00;;;;;;;6.49;73.58;95190.31;9882341;30;20427;-76
2021/01/23 04:55:44;;;;;;;8.00;4.50;;;;;;;6.50;73.21;95182.72;9885739;30;20105;-76
2021/01/23 05:01:04;;;;;;;11.43;5.00;;;;;;;6.48;73.34;95172.25;9889825;29;20063;-76
2021/01/23 05:06:28;;;;;;;8.23;4.30;;;;;;;6.49;73.68;95173.69;9865827;30;20095;-76
2021/01/23 05:11:49;;;;;;;7.50;4.68;;;;;;;6.47;73.54;95175.66;9876374;30;20071;-76
2021/01/23 05:17:09;;;;;;;8.70;4.70;;;;;;;6.48;73.93;95166.00;9939204;29;20452;-76
2021/01/23 05:22:29;;;;;;;8.75;5.00;;;;;;;6.46;74.07;95163.84;9953005;29;20127;-76
2021/01/23 05:27:48;;;;;;;10.63;4.47;;;;;;;6.45;73.46;95151.34;9951235;29;20136;-76
2021/01/23 05:33:17;;;;;;;7.22;3.47;;;;;;;6.41;73.62;95148.41;9950988;29;20506;-76
2021/01/23 05:38:45;;;;;;;6.75;3.67;;;;;;;6.38;73.77;95163.53;9938482;29;20138;-76
2021/01/23 05:44:10;;;;;;;8.38;3.53;;;;;;;6.35;73.90;95159.22;9912938;29;20464;-77
2021/01/23 05:49:30;;;;;;;8.18;3.67;;;;;;;6.34;73.71;95148.78;9937837;29;20150;-76
2021/01/23 05:54:50;;;;;;;7.97;3.95;;;;;;;6.38;74.01;95141.34;9903090;30;20074;-76
2021/01/23 06:00:11;;;;;;;9.32;4.30;;;;;;;6.38;73.97;95141.34;9900940;30;20415;-76
2021/01/23 06:05:30;;;;;;;8.43;4.25;;;;;;;6.34;73.90;95151.53;9886055;29;20587;-76
2021/01/23 06:10:50;;;;;;;8.43;3.63;;;;;;;6.34;74.25;95168.88;9900478;30;20205;-76
2021/01/23 06:16:33;;;;;;;8.43;3.88;;;;;;;6.37;74.10;95175.94;9887751;30;20102;-76
2021/01/23 06:21:53;;;;;;;6.38;3.53;;;;;;;6.35;73.90;95170.31;9913454;30;20070;-76
2021/01/23 06:27:13;;;;;;;10.13;4.88;;;;;;;6.37;74.21;95173.19;9886010;30;20058;-76
2021/01/23 06:32:33;;;;;;;7.40;4.28;;;;;;;6.37;74.28;95178.72;9887233;30;20496;-76
2021/01/23 06:38:21;;;;;;;7.72;4.20;;;;;;;6.31;74.72;95200.63;9912129;30;20083;-76
2021/01/23 06:44:05;;;;;;;9.40;4.15;;;;;;;6.24;74.50;95198.94;9911544;30;20142;-75
2021/01/23 06:49:25;;;;;;;11.48;5.43;;;;;;;6.28;74.49;95190.81;9889154;29;20172;-76
2021/01/23 06:54:46;;;;;;;12.05;6.78;;;;;;;6.20;74.84;95207.06;9920646;29;20067;-76
2021/01/23 07:00:07;;;;;;;19.33;11.05;;;;;;;6.03;75.07;95208.41;9897959;30;20558;-76
2021/01/23 07:05:27;;;;;;;17.77;11.48;;;;;;;5.84;74.84;95226.25;9899832;29;20065;-76
2021/01/23 07:11:14;;;;;;;17.90;12.30;;;;;;;5.68;75.51;95242.09;9934168;29;20179;-76
2021/01/23 07:16:39;;;;;;;27.08;13.90;;;;;;;5.54;75.40;95247.72;9933600;29;20549;-76
2021/01/23 07:21:58;;;;;;;25.95;14.02;;;;;;;5.44;76.37;95250.00;9935239;29;20077;-76
2021/01/23 07:27:19;;;;;;;25.13;15.77;;;;;;;5.30;76.98;95261.09;9947400;29;20067;-76
2021/01/23 07:32:39;;;;;;;28.80;16.95;;;;;;;5.28;78.16;95263.78;9933415;29;20090;-76
2021/01/23 07:37:59;;;;;;;29.35;18.73;;;;;;;5.17;78.45;95284.72;9934920;29;20063;-76
2021/01/23 07:43:19;;;;;;;29.45;18.10;;;;;;;4.99;78.50;95297.63;9920679;29;20099;-76
2021/01/23 07:48:41;;;;;;;25.13;15.63;;;;;;;4.85;79.64;95286.59;9910256;30;20074;-76
2021/01/23 07:54:10;;;;;;;21.92;14.15;;;;;;;4.74;80.99;95300.53;9870629;30;20427;-76
2021/01/23 07:59:46;;;;;;;20.20;12.52;;;;;;;4.69;80.04;95301.66;9909700;30;20083;-76
2021/01/23 08:05:08;;;;;;;18.10;10.88;;;;;;;4.70;79.35;95300.31;9881057;30;20093;-76
2021/01/23 08:10:28;;;;;;;11.90;8.27;;;;;;;4.71;78.91;95307.28;9871069;30;20068;-76
2021/01/23 08:15:47;;;;;;;10.77;7.78;;;;;;;4.82;77.79;95307.16;9883138;30;20094;-76
2021/01/23 08:21:21;;;;;;;8.80;6.43;;;;;;;4.95;78.19;95316.81;9894895;30;20164;-76
2021/01/23 08:26:41;;;;;;;5.45;4.13;;;;;;;4.89;77.43;95336.56;9907499;30;20075;-76
2021/01/23 08:32:02;;;;;;;4.47;3.20;;;;;;;4.88;77.00;95346.19;9887559;30;20132;-75
2021/01/23 08:37:22;;;;;;;2.83;2.53;;;;;;;4.88;76.57;95356.53;9901044;30;20422;-76
2021/01/23 08:42:42;;;;;;;2.88;1.77;;;;;;;4.68;76.75;95372.78;9911041;29;20065;-76
2021/01/23 08:48:02;;;;;;;1.85;1.23;;;;;;;4.59;76.17;95387.50;9939542;29;20063;-76
2021/01/23 08:53:22;;;;;;;1.67;0.80;;;;;;;4.60;76.57;95389.66;9913764;29;20070;-76
2021/01/23 08:58:42;;;;;;;2.70;0.80;;;;;;;4.47;75.87;95415.22;9938294;29;20157;-77
2021/01/23 09:04:04;;;;;;;4.30;0.85;;;;;;;4.42;75.70;95429.41;9955137;29;20055;-77
2021/01/23 09:09:24;;;;;;;2.00;0.70;;;;;;;4.32;75.74;95457.22;9953057;29;20096;-76
2021/01/23 09:14:44;;;;;;;1.58;0.40;;;;;;;4.17;75.95;95482.63;9950816;29;20058;-76
2021/01/23 09:20:05;;;;;;;1.55;0.57;;;;;;;4.03;75.64;95490.81;9930547;29;20518;-73
2021/01/23 09:25:25;;;;;;;1.33;0.60;;;;;;;3.75;75.73;95500.97;9912723;30;20541;-75
2021/01/23 09:30:44;;;;;;;1.40;0.52;;;;;;;3.63;76.48;95512.03;9913579;30;20067;-75
2021/01/23 09:36:05;;;;;;;1.50;0.50;;;;;;;3.43;76.52;95527.41;9899741;30;20150;-73
2021/01/23 09:41:25;;;;;;;1.98;0.50;;;;;;;3.42;76.15;95534.25;9912483;29;20063;-74
2021/01/23 09:46:46;;;;;;;0.75;0.30;;;;;;;3.47;75.63;95560.75;9849468;30;20063;-74
2021/01/23 09:52:06;;;;;;;0.52;0.30;;;;;;;3.60;75.78;95573.22;9875207;30;20063;-73
2021/01/23 09:57:25;;;;;;;0.98;0.35;;;;;;;3.72;76.15;95569.13;9874416;30;20427;-73
2021/01/23 10:02:47;;;;;;;1.00;0.47;;;;;;;3.74;75.60;95572.00;9905533;29;20067;-73
2021/01/23 10:08:07;;;;;;;0.80;0.50;;;;;;;3.77;75.44;95567.34;9911577;30;20067;-75
2021/01/23 10:13:28;;;;;;;1.58;0.50;;;;;;;3.85;75.34;95573.31;9873512;30;20063;-75
2021/01/23 10:18:48;;;;;;;1.25;0.60;;;;;;;3.79;75.64;95584.00;9872965;30;20065;-75
2021/01/23 10:24:10;;;;;;;1.60;0.70;;;;;;;3.54;75.33;95590.13;9910538;30;20070;-75
2021/01/23 10:29:30;;;;;;;2.53;0.82;;;;;;;3.48;76.32;95611.84;9885203;30;20071;-75
2021/01/23 10:34:49;;;;;;;1.70;0.80;;;;;;;3.49;75.37;95618.81;9910997;29;20067;-75
2021/01/23 10:40:09;;;;;;;2.05;0.95;;;;;;;3.45;75.78;95630.31;9910775;30;20116;-73
2021/01/23 10:45:29;;;;;;;3.20;1.25;;;;;;;3.49;75.87;95637.41;9897469;30;20055;-75
2021/01/23 10:50:49;;;;;;;2.63;1.15;;;;;;;3.49;75.67;95645.66;9896203;29;20067;-74
2021/01/23 10:56:09;;;;;;;2.67;0.93;;;;;;;3.58;75.29;95659.34;9896464;30;20063;-74
2021/01/23 11:01:30;;;;;;;3.15;0.80;;;;;;;3.64;75.58;95662.47;9884636;30;20189;-75
2021/01/23 11:06:50;;;;;;;1.67;0.55;;;;;;;3.89;74.85;95658.41;9896154;30;20070;-76
2021/01/23 11:12:10;;;;;;;2.20;0.90;;;;;;;3.87;75.05;95667.28;9910649;30;20067;-75
2021/01/23 11:17:29;;;;;;;1.95;1.05;;;;;;;3.93;74.65;95684.19;9910588;30;20495;-76
2021/01/23 11:34:34;;;;;;;1.77;0.70;;;;;;;3.95;75.11;95744.31;10630508;27;951897;-76
2021/01/23 11:39:54;;;;;;;2.30;0.65;;;;;;;3.97;75.35;95741.72;10589770;28;20132;-78
2021/01/23 11:45:14;;;;;;;1.13;0.65;;;;;;;4.09;75.50;95759.00;10589611;28;20060;-77
2021/01/23 11:50:35;;;;;;;1.65;0.50;;;;;;;4.10;74.70;95771.47;10603861;28;20180;-76
2021/01/23 11:55:54;;;;;;;2.65;0.70;;;;;;;4.09;74.59;95769.31;10604211;28;20055;-74
2021/01/23 12:01:14;;;;;;;1.05;0.50;;;;;;;4.18;74.60;95755.41;10618834;28;20463;-76
2021/01/23 12:06:34;;;;;;;1.23;0.68;;;;;;;4.26;72.96;95760.69;10575383;28;20394;-78
2021/01/23 12:11:55;;;;;;;1.20;0.50;;;;;;;4.32;72.61;95770.03;10636043;27;20099;-81
2021/01/23 12:17:15;;;;;;;1.02;0.50;;;;;;;4.47;74.44;95765.38;10608341;28;20047;-81
2021/01/23 12:22:36;;;;;;;1.08;0.60;;;;;;;4.66;73.35;95772.69;10765399;22;20027;-82
2021/01/23 12:28:02;;;;;;;1.05;0.52;;;;;;;4.89;73.76;95765.06;10572202;28;20115;-81
2021/01/23 12:33:50;;;;;;;2.17;0.50;;;;;;;5.17;73.35;95768.00;12191647;22;20027;-81
2021/01/23 12:39:12;;;;;;;1.83;0.50;;;;;;;5.20;73.01;95761.25;10550310;28;20502;-77
2021/01/23 12:44:32;;;;;;;1.92;0.40;;;;;;;5.29;72.56;95773.47;10546137;28;20048;-76
2021/01/23 12:49:52;;;;;;;1.13;0.60;;;;;;;5.24;72.31;95789.16;12088193;22;20045;-79
2021/01/23 12:55:12;;;;;;;1.63;0.90;;;;;;;5.18;72.22;95794.31;10480882;28;20059;-76
2021/01/23 13:00:33;;;;;;;1.48;1.02;;;;;;;5.18;71.37;95799.84;10489037;28;20092;-76
2021/01/23 13:05:53;;;;;;;1.40;0.75;;;;;;;5.29;71.98;95812.22;10489307;28;20060;-77
2021/01/23 13:11:16;;;;;;;2.72;1.75;;;;;;;5.39;71.11;95818.31;10504631;28;20056;-75
2021/01/23 13:16:36;;;;;;;2.95;1.77;;;;;;;5.20;71.09;95827.63;10503969;28;20487;-74
2021/01/23 13:21:56;;;;;;;1.88;1.13;;;;;;;5.15;71.27;95823.91;10474168;28;20461;-75
2021/01/23 13:27:17;;;;;;;1.20;0.70;;;;;;;5.21;70.46;95823.56;10459897;28;20499;-76
2021/01/23 13:32:41;;;;;;;1.92;0.85;;;;;;;5.58;71.21;95837.38;10474577;28;20091;-76
2021/01/23 13:38:01;;;;;;;1.00;0.60;;;;;;;5.73;69.80;95841.66;10474938;28;20056;-72
2021/01/23 13:43:22;;;;;;;1.40;0.60;;;;;;;5.51;70.05;95838.38;10486746;28;20399;-74
2021/01/23 13:48:41;;;;;;;2.28;0.90;;;;;;;5.24;69.35;95854.81;10479046;28;20057;-76
2021/01/23 13:54:01;;;;;;;2.58;1.80;;;;;;;5.10;70.08;95851.94;10510122;28;20567;-79
2021/01/23 13:59:28;;;;;;;2.85;1.00;;;;;;;4.98;69.68;95854.00;10706364;23;20077;-81
2021/01/23 14:04:50;;;;;;;;;;;;;;;4.84;69.52;95846.34;10678557;22;20063;-74
2021/01/23 14:10:09;;;;;;;1.40;0.80;;;;;;;4.83;70.05;95844.91;10476378;28;19925;-79
2021/01/23 14:15:29;;;;;;;2.95;0.55;;;;;;;4.81;69.66;95832.97;10504680;28;20139;-77
2021/01/23 14:20:49;;;;;;;1.77;0.90;;;;;;;4.86;69.39;95827.09;10488991;28;20067;-79
2021/01/23 14:26:09;;;;;;;1.80;0.80;;;;;;;4.74;69.29;95829.16;10508312;28;20502;-74
2021/01/23 14:31:29;;;;;;;2.28;1.00;;;;;;;4.61;69.42;95826.97;10500449;28;20572;-77
2021/01/23 14:37:01;;;;;;;2.05;1.10;;;;;;;4.39;69.60;95822.91;10493531;28;20091;-82
2021/01/23 14:42:25;;;;;;;2.47;1.13;;;;;;;4.39;69.53;95820.84;10489743;28;20071;-77
2021/01/23 14:47:47;;;;;;;1.95;0.70;;;;;;;4.42;70.06;95821.69;10564686;22;20056;-77
2021/01/23 14:53:07;;;;;;;1.63;0.75;;;;;;;4.43;69.85;95831.41;10539933;28;20075;-80
2021/01/23 14:58:27;;;;;;;1.95;0.65;;;;;;;4.43;69.67;95828.66;10542147;28;20410;-77
2021/01/23 15:04:30;;;;;;;1.55;1.00;;;;;;;4.35;69.19;95823.38;11266509;22;20045;-81
2021/01/23 15:17:21;;;;;;;1.98;0.80;;;;;;;4.24;69.84;95830.31;10982467;22;20155;-78
2021/01/23 15:22:40;;;;;;;1.63;0.95;;;;;;;4.20;69.70;95835.59;10476157;28;20427;-77
2021/01/23 15:28:01;;;;;;;2.58;1.50;;;;;;;4.13;69.44;95836.53;10485305;28;20061;-75
2021/01/23 15:33:21;;;;;;;2.95;1.55;;;;;;;4.00;69.31;95826.09;10485023;28;20521;-76
2021/01/23 15:38:41;;;;;;;3.90;2.40;;;;;;;3.90;69.81;95839.97;10443435;28;20537;-76
2021/01/23 15:44:00;;;;;;;9.73;5.57;;;;;;;3.90;70.00;95850.31;10456640;28;20076;-76
2021/01/23 15:49:20;;;;;;;5.63;3.25;;;;;;;3.89;70.15;95852.34;10457687;28;20106;-77
2021/01/23 15:54:40;;;;;;;4.90;3.05;;;;;;;3.87;69.48;95846.72;10456840;28;20091;-79
2021/01/23 16:00:00;;;;;;;4.22;2.50;;;;;;;3.77;70.09;95854.34;10457021;28;20063;-79
2021/01/23 16:05:20;;;;;;;2.78;1.83;;;;;;;3.73;69.53;95857.56;10428195;28;20063;-80
2021/01/23 16:10:39;;;;;;;3.67;2.03;;;;;;;3.73;69.77;95846.53;10464211;28;20503;-76
2021/01/23 16:15:59;;;;;;;5.20;1.90;;;;;;;3.70;69.96;95850.47;10463691;28;20061;-76
2021/01/23 16:21:19;;;;;;;3.92;2.28;;;;;;;3.71;69.76;95843.63;10463394;28;20148;-78
2021/01/23 16:26:39;;;;;;;4.82;2.80;;;;;;;3.64;70.39;95841.81;10465509;28;20122;-75
2021/01/23 16:31:59;;;;;;;5.78;2.47;;;;;;;3.66;70.03;95852.25;10464474;28;20581;-79
2021/01/23 16:37:18;;;;;;;5.30;3.47;;;;;;;3.63;70.17;95837.59;10463156;28;20060;-78
2021/01/23 16:42:38;;;;;;;4.32;2.97;;;;;;;3.68;69.86;95844.84;10462292;28;20384;-77
2021/01/23 16:47:58;;;;;;;3.65;2.45;;;;;;;3.70;70.16;95850.47;10448384;28;20067;-75
2021/01/23 16:53:18;;;;;;;5.93;3.20;;;;;;;3.73;70.07;95843.03;10461927;28;20136;-73
2021/01/23 16:58:38;;;;;;;5.45;3.45;;;;;;;3.71;70.57;95840.88;10462336;28;20052;-77
2021/01/23 17:03:58;;;;;;;8.68;5.18;;;;;;;3.68;70.22;95833.81;10447925;28;20067;-75
2021/01/23 17:09:18;;;;;;;9.45;5.35;;;;;;;3.69;70.45;95840.75;10461424;28;20064;-73
2021/01/23 17:14:39;;;;;;;8.68;4.82;;;;;;;3.73;70.14;95832.00;10461597;28;20549;-73
2021/01/23 17:19:59;;;;;;;5.07;3.10;;;;;;;3.77;70.56;95835.03;10462297;28;20381;-75
2021/01/23 17:25:19;;;;;;;6.22;3.70;;;;;;;3.80;70.72;95824.84;10461679;28;20091;-74
2021/01/23 17:30:39;;;;;;;4.28;2.72;;;;;;;3.82;70.50;95820.16;10463732;28;20061;-76
2021/01/23 17:35:59;;;;;;;4.95;3.05;;;;;;;3.90;70.22;95814.41;10460313;28;20060;-76
2021/01/23 17:41:19;;;;;;;4.28;2.58;;;;;;;3.89;70.79;95819.22;10460211;28;20136;-74
2021/01/23 17:46:39;;;;;;;4.85;2.58;;;;;;;3.97;70.14;95827.28;10461166;28;20574;-74
2021/01/23 17:51:59;;;;;;;3.65;2.53;;;;;;;3.95;70.11;95841.66;10460605;28;20406;-74
2021/01/23 17:57:19;;;;;;;4.15;2.72;;;;;;;3.96;70.69;95834.13;10459814;28;20403;-73
2021/01/23 18:02:39;;;;;;;5.32;3.45;;;;;;;3.95;70.54;95835.41;10460262;28;20403;-75
2021/01/23 18:07:59;;;;;;;3.80;3.05;;;;;;;3.95;70.38;95838.19;10459654;28;20098;-74
2021/01/23 18:13:19;;;;;;;4.57;3.35;;;;;;;3.94;70.54;95847.78;10460160;28;20084;-72
2021/01/23 18:18:38;;;;;;;4.90;3.28;;;;;;;3.92;70.68;95844.91;10459987;28;20061;-75
2021/01/23 18:23:58;;;;;;;4.60;3.50;;;;;;;3.84;70.82;95850.63;10458981;28;20537;-75
2021/01/23 18:29:19;;;;;;;4.03;2.95;;;;;;;3.77;70.87;95851.59;10444256;28;20107;-77
2021/01/23 18:34:38;;;;;;;4.93;3.25;;;;;;;3.68;70.72;95853.13;10459535;28;20052;-75
2021/01/23 18:39:58;;;;;;;3.25;2.53;;;;;;;3.72;71.27;95856.13;10462137;28;20116;-74
2021/01/23 18:45:18;;;;;;;5.43;3.53;;;;;;;3.77;71.09;95850.88;10458573;28;20053;-76
2021/01/23 18:50:38;;;;;;;5.28;3.90;;;;;;;3.73;70.60;95849.28;10458704;28;20065;-76
2021/01/23 18:55:58;;;;;;;5.93;4.10;;;;;;;3.75;71.37;95848.69;10443219;28;20131;-77
2021/01/23 19:01:18;;;;;;;5.53;3.63;;;;;;;3.74;70.71;95847.97;10458363;28;20123;-74
2021/01/23 19:06:38;;;;;;;5.03;3.38;;;;;;;3.77;71.07;95851.59;10457818;28;20114;-74
2021/01/23 19:11:58;;;;;;;4.13;2.92;;;;;;;3.76;71.28;95854.91;10456960;28;20529;-74
2021/01/23 19:17:18;;;;;;;5.00;3.05;;;;;;;3.68;70.78;95850.34;10442577;28;20086;-75
2021/01/23 19:22:38;;;;;;;4.25;3.03;;;;;;;3.67;71.10;95848.91;10456206;28;20065;-74
2021/01/23 19:27:58;;;;;;;3.97;3.10;;;;;;;3.63;71.57;95847.94;10457000;28;20057;-75
2021/01/23 19:33:18;;;;;;;6.43;3.72;;;;;;;3.52;71.14;95840.31;10457068;28;20099;-75
2021/01/23 19:38:39;;;;;;;5.45;3.67;;;;;;;3.52;71.45;95849.31;10456423;28;20136;-76
2021/01/23 19:43:59;;;;;;;5.15;3.63;;;;;;;3.51;71.34;95836.84;10461478;28;20061;-75
2021/01/23 19:49:19;;;;;;;6.40;3.25;;;;;;;3.50;71.85;95835.41;10450352;28;20142;-75
2021/01/23 19:54:39;;;;;;;5.50;3.25;;;;;;;3.53;70.96;95833.50;10450039;28;20091;-75
2021/01/23 19:59:59;;;;;;;4.80;3.75;;;;;;;3.48;71.35;95829.78;10464748;28;20551;-75
2021/01/23 20:05:20;;;;;;;6.72;4.25;;;;;;;3.43;71.55;95825.28;10464507;28;20376;-75
2021/01/23 20:10:40;;;;;;;7.35;5.05;;;;;;;3.40;71.44;95832.72;10463473;28;20088;-72
2021/01/23 20:16:01;;;;;;;7.97;5.22;;;;;;;3.36;71.75;95834.50;10464418;28;20637;-74
2021/01/23 20:21:20;;;;;;;6.30;4.70;;;;;;;3.32;71.77;95828.72;10463634;28;20065;-74
2021/01/23 20:26:41;;;;;;;6.85;4.68;;;;;;;3.25;72.20;95815.84;10464161;28;20442;-73
2021/01/23 20:32:01;;;;;;;6.93;5.43;;;;;;;3.12;71.68;95809.56;10462812;28;20139;-73
2021/01/23 20:37:21;;;;;;;9.18;6.70;;;;;;;3.00;71.91;95803.28;10462690;28;20087;-74
2021/01/23 20:42:41;;;;;;;9.75;6.68;;;;;;;2.96;71.71;95800.25;10463647;28;20065;-73
2021/01/23 20:48:01;;;;;;;8.45;6.38;;;;;;;2.96;71.79;95797.47;10464856;28;20121;-72
2021/01/23 20:53:22;;;;;;;8.65;6.25;;;;;;;2.95;72.21;95792.56;10464368;28;20052;-72
2021/01/23 20:58:42;;;;;;;7.78;6.72;;;;;;;2.93;72.34;95795.91;10449465;28;20087;-72
2021/01/23 21:04:02;;;;;;;8.23;6.35;;;;;;;2.95;72.55;95787.78;10449435;28;20110;-74
2021/01/23 21:09:21;;;;;;;8.60;6.63;;;;;;;2.94;72.74;95789.09;10463965;28;20092;-74
2021/01/23 21:14:42;;;;;;;14.18;11.13;;;;;;;2.89;72.38;95781.84;10464657;28;20087;-74
2021/01/23 21:20:04;;;;;;;8.95;7.65;;;;;;;2.87;72.68;95792.75;10463404;28;20053;-75
2021/01/23 21:25:24;;;;;;;9.35;7.70;;;;;;;2.79;72.19;95781.91;10462580;28;20065;-74
2021/01/23 21:30:44;;;;;;;8.85;7.13;;;;;;;2.75;72.40;95778.19;10434050;28;20069;-74
2021/01/23 21:36:04;;;;;;;8.90;6.80;;;;;;;2.74;72.42;95771.25;10448141;28;20576;-74
2021/01/23 21:41:24;;;;;;;7.78;6.60;;;;;;;2.70;72.69;95759.94;10462665;28;20520;-74
2021/01/23 21:46:43;;;;;;;6.82;5.88;;;;;;;2.68;72.78;95765.31;10461813;28;20064;-74
2021/01/23 21:52:04;;;;;;;6.93;6.05;;;;;;;2.67;72.50;95767.34;10448165;28;20139;-74
2021/01/23 21:57:23;;;;;;;7.82;6.60;;;;;;;2.66;72.86;95762.44;10462039;28;20065;-74
2021/01/23 22:02:43;;;;;;;9.95;6.93;;;;;;;2.70;72.87;95762.69;10462416;28;20091;-74
2021/01/23 22:08:07;;;;;;;9.00;7.65;;;;;;;2.69;73.38;95758.50;10461024;28;20061;-72
2021/01/23 22:13:28;;;;;;;9.70;6.75;;;;;;;2.70;73.42;95766.19;10461224;28;20064;-71
2021/01/23 22:18:49;;;;;;;9.55;7.68;;;;;;;2.68;73.50;95757.78;10461397;28;20075;-72
2021/01/23 22:24:09;;;;;;;10.13;8.48;;;;;;;2.69;74.03;95758.50;10460146;28;20067;-72
2021/01/23 22:29:29;;;;;;;11.45;9.68;;;;;;;2.58;74.13;95755.09;10459715;28;20057;-71
2021/01/23 22:34:49;;;;;;;12.70;10.07;;;;;;;2.56;73.38;95745.97;10460171;28;20114;-72
2021/01/23 22:40:10;;;;;;;14.32;10.50;;;;;;;2.53;74.28;95753.38;10460248;28;20396;-71
2021/01/23 22:45:30;;;;;;;15.30;11.95;;;;;;;2.47;73.51;95750.22;10444852;28;20076;-72
2021/01/23 22:50:51;;;;;;;15.20;11.88;;;;;;;2.43;74.26;95752.72;10430918;28;20057;-72
2021/01/23 22:56:11;;;;;;;17.50;13.95;;;;;;;2.41;73.88;95752.56;10458676;28;20057;-72
2021/01/23 23:01:31;;;;;;;16.55;12.73;;;;;;;2.40;75.03;95739.38;10460439;28;20064;-72
2021/01/23 23:06:51;;;;;;;14.70;11.82;;;;;;;2.33;74.54;95729.31;10459447;28;20072;-72
2021/01/23 23:12:12;;;;;;;15.90;13.02;;;;;;;2.34;74.58;95725.25;10459684;28;20111;-72
2021/01/23 23:17:32;;;;;;;18.50;13.65;;;;;;;2.34;74.46;95731.47;10458285;28;20061;-71
2021/01/23 23:22:54;;;;;;;17.17;13.60;;;;;;;2.38;74.81;95728.97;10458453;28;20132;-72
2021/01/23 23:28:14;;;;;;;17.00;13.38;;;;;;;2.46;74.47;95726.03;10458500;28;20063;-72
2021/01/23 23:33:33;;;;;;;16.50;13.25;;;;;;;2.53;73.89;95705.84;10459748;28;20092;-72
2021/01/23 23:38:53;;;;;;;19.38;13.93;;;;;;;2.55;74.65;95712.19;10457667;28;20144;-72
2021/01/23 23:44:13;;;;;;;18.30;13.52;;;;;;;2.55;74.32;95705.97;10443999;28;20067;-72
2021/01/23 23:49:33;;;;;;;18.52;14.15;;;;;;;2.57;74.87;95698.56;10458981;28;20053;-72
2021/01/23 23:54:53;;;;;;;18.77;14.18;;;;;;;2.51;74.40;95695.44;10457285;28;20080;-71
